TAR1AB DTTF-DTTA
Flight info
| Callsign | TAR1AB |
|---|---|
| Flight time | 0h 34m |
| Altitude | 23000 |
| Route | SOUIN2B SOUIN DCT BAN L44 RATBA DCT ROVIL |
| Aircraft | A320/M-SDE3FGHIRWY/LB1 |
Departure
| Time | 2026-04-23 20:34 |
|---|---|
| Airport | Gafsa Ksar International Airport (DTTF) |
Arrival
| Time | 2026-04-23 21:09 |
|---|---|
| Airport | Tunis Carthage International Airport (DTTA) |
| Time | Latitude | Longitude | Altitude | Speed | Heading |
|---|---|---|---|---|---|
| 2026-04-23 20:22 | 34.41747 | 8.81242 | 1025 ft | 0 kts | 319° |
| 2026-04-23 20:29 | 34.41755 | 8.81213 | 1021 ft | 10 kts | 262° |
| 2026-04-23 20:29 | 34.41697 | 8.81199 | 1020 ft | 9 kts | 158° |
| 2026-04-23 20:29 | 34.41651 | 8.81248 | 1024 ft | 10 kts | 137° |
| 2026-04-23 20:29 | 34.41622 | 8.81280 | 1023 ft | 0 kts | 138° |
| 2026-04-23 20:30 | 34.41621 | 8.81281 | 1023 ft | 0 kts | 138° |
| 2026-04-23 20:30 | 34.41584 | 8.81319 | 1022 ft | 13 kts | 142° |
| 2026-04-23 20:30 | 34.41511 | 8.81290 | 1022 ft | 12 kts | 227° |
| 2026-04-23 20:31 | 34.41421 | 8.81177 | 1022 ft | 22 kts | 213° |
| 2026-04-23 20:31 | 34.41345 | 8.81080 | 1021 ft | 11 kts | 313° |
| 2026-04-23 20:31 | 34.41388 | 8.81124 | 1022 ft | 9 kts | 59° |
| 2026-04-23 20:31 | 34.41400 | 8.81143 | 1022 ft | 0 kts | 47° |
| 2026-04-23 20:32 | 34.41401 | 8.81144 | 1022 ft | 1 kts | 47° |
| 2026-04-23 20:32 | 34.41402 | 8.81146 | 1022 ft | 0 kts | 47° |
| 2026-04-23 20:33 | 34.41404 | 8.81149 | 1022 ft | 1 kts | 47° |
| 2026-04-23 20:33 | 34.41416 | 8.81164 | 1022 ft | 4 kts | 47° |
| 2026-04-23 20:33 | 34.41479 | 8.81251 | 1022 ft | 38 kts | 49° |
| 2026-04-23 20:34 | 34.41820 | 8.81715 | 1025 ft | 106 kts | 48° |
| 2026-04-23 20:34 | 34.42435 | 8.82548 | 1126 ft | 149 kts | 49° |
| 2026-04-23 20:34 | 34.43104 | 8.83444 | 1819 ft | 144 kts | 49° |
| 2026-04-23 20:34 | 34.43792 | 8.84372 | 2488 ft | 147 kts | 50° |
| 2026-04-23 20:35 | 34.44441 | 8.85311 | 3140 ft | 152 kts | 51° |
| 2026-04-23 20:35 | 34.45160 | 8.86338 | 3551 ft | 169 kts | 50° |
| 2026-04-23 20:35 | 34.45973 | 8.87495 | 3916 ft | 192 kts | 50° |
| 2026-04-23 20:35 | 34.46898 | 8.88802 | 4268 ft | 217 kts | 49° |
| 2026-04-23 20:36 | 34.47985 | 8.90211 | 4719 ft | 241 kts | 38° |
| 2026-04-23 20:36 | 34.49433 | 8.91370 | 5324 ft | 257 kts | 27° |
| 2026-04-23 20:36 | 34.51072 | 8.92320 | 6213 ft | 263 kts | 21° |
| 2026-04-23 20:36 | 34.52763 | 8.93192 | 7169 ft | 265 kts | 20° |
| 2026-04-23 20:37 | 34.54458 | 8.94063 | 8157 ft | 265 kts | 19° |
| 2026-04-23 20:37 | 34.56149 | 8.94962 | 9184 ft | 265 kts | 19° |
| 2026-04-23 20:37 | 34.57843 | 8.95895 | 9821 ft | 268 kts | 19° |
| 2026-04-23 20:37 | 34.59531 | 8.96855 | 10285 ft | 271 kts | 20° |
| 2026-04-23 20:38 | 34.61309 | 8.97876 | 10661 ft | 295 kts | 20° |
| 2026-04-23 20:38 | 34.63225 | 8.99021 | 11027 ft | 317 kts | 25° |
| 2026-04-23 20:38 | 34.65121 | 9.00467 | 11670 ft | 326 kts | 27° |
| 2026-04-23 20:38 | 34.67054 | 9.01953 | 12400 ft | 332 kts | 27° |
| 2026-04-23 20:39 | 34.69027 | 9.03467 | 13145 ft | 338 kts | 26° |
| 2026-04-23 20:39 | 34.71031 | 9.05000 | 13904 ft | 343 kts | 26° |
| 2026-04-23 20:39 | 34.73057 | 9.06551 | 14558 ft | 347 kts | 26° |
| 2026-04-23 20:39 | 34.75118 | 9.08131 | 15234 ft | 351 kts | 26° |
| 2026-04-23 20:40 | 34.77194 | 9.09727 | 15924 ft | 355 kts | 26° |
| 2026-04-23 20:40 | 34.79300 | 9.11350 | 16584 ft | 360 kts | 27° |
| 2026-04-23 20:40 | 34.81421 | 9.12985 | 17243 ft | 363 kts | 27° |
| 2026-04-23 20:40 | 34.83570 | 9.14643 | 17911 ft | 367 kts | 27° |
| 2026-04-23 20:41 | 34.85742 | 9.16313 | 18543 ft | 371 kts | 25° |
| 2026-04-23 20:41 | 34.88036 | 9.17713 | 19111 ft | 370 kts | 19° |
| 2026-04-23 20:41 | 34.90399 | 9.19001 | 19732 ft | 373 kts | 18° |
| 2026-04-23 20:41 | 34.92772 | 9.20297 | 20342 ft | 375 kts | 18° |
| 2026-04-23 20:42 | 34.95161 | 9.21606 | 20964 ft | 378 kts | 18° |
| 2026-04-23 20:42 | 34.97560 | 9.22925 | 21576 ft | 380 kts | 18° |
| 2026-04-23 20:42 | 34.99975 | 9.24253 | 22176 ft | 382 kts | 18° |
| 2026-04-23 20:42 | 35.02376 | 9.25574 | 22751 ft | 385 kts | 18° |
| 2026-04-23 20:43 | 35.04827 | 9.26924 | 23062 ft | 387 kts | 18° |
| 2026-04-23 20:43 | 35.07282 | 9.28278 | 23125 ft | 389 kts | 18° |
| 2026-04-23 20:43 | 35.09752 | 9.29641 | 23130 ft | 390 kts | 18° |
| 2026-04-23 20:43 | 35.12225 | 9.31013 | 23130 ft | 390 kts | 18° |
| 2026-04-23 20:44 | 35.14698 | 9.32386 | 23144 ft | 390 kts | 18° |
| 2026-04-23 20:44 | 35.17173 | 9.33759 | 23127 ft | 390 kts | 18° |
| 2026-04-23 20:44 | 35.19639 | 9.35125 | 23128 ft | 390 kts | 18° |
| 2026-04-23 20:44 | 35.22109 | 9.36492 | 23128 ft | 389 kts | 18° |
| 2026-04-23 20:45 | 35.24580 | 9.37862 | 23130 ft | 390 kts | 18° |
| 2026-04-23 20:45 | 35.27043 | 9.39232 | 23133 ft | 390 kts | 18° |
| 2026-04-23 20:45 | 35.29521 | 9.40610 | 23137 ft | 390 kts | 18° |
| 2026-04-23 20:45 | 35.31987 | 9.41983 | 23138 ft | 390 kts | 18° |
| 2026-04-23 20:46 | 35.34455 | 9.43358 | 23124 ft | 388 kts | 18° |
| 2026-04-23 20:46 | 35.36895 | 9.44723 | 22886 ft | 382 kts | 18° |
| 2026-04-23 20:46 | 35.39305 | 9.46070 | 22655 ft | 380 kts | 18° |
| 2026-04-23 20:46 | 35.41707 | 9.47406 | 22404 ft | 380 kts | 18° |
| 2026-04-23 20:47 | 35.44111 | 9.48743 | 22137 ft | 378 kts | 18° |
| 2026-04-23 20:47 | 35.46504 | 9.50078 | 21879 ft | 377 kts | 18° |
| 2026-04-23 20:47 | 35.48886 | 9.51408 | 21618 ft | 376 kts | 18° |
| 2026-04-23 20:47 | 35.51262 | 9.52734 | 21358 ft | 375 kts | 18° |
| 2026-04-23 20:48 | 35.53629 | 9.54057 | 21115 ft | 373 kts | 18° |
| 2026-04-23 20:48 | 35.55987 | 9.55377 | 20867 ft | 372 kts | 18° |
| 2026-04-23 20:48 | 35.58339 | 9.56695 | 20620 ft | 371 kts | 18° |
| 2026-04-23 20:48 | 35.60684 | 9.58009 | 20368 ft | 370 kts | 18° |
| 2026-04-23 20:49 | 35.62230 | 9.58877 | 20212 ft | 369 kts | 18° |
| 2026-04-23 20:49 | 35.64559 | 9.60186 | 19964 ft | 368 kts | 18° |
| 2026-04-23 20:49 | 35.66886 | 9.61496 | 19727 ft | 367 kts | 18° |
| 2026-04-23 20:49 | 35.69198 | 9.62796 | 19501 ft | 365 kts | 18° |
| 2026-04-23 20:50 | 35.71508 | 9.64094 | 19249 ft | 364 kts | 18° |
| 2026-04-23 20:50 | 35.73813 | 9.65389 | 19011 ft | 363 kts | 18° |
| 2026-04-23 20:50 | 35.76109 | 9.66678 | 18782 ft | 362 kts | 18° |
| 2026-04-23 20:50 | 35.78398 | 9.67964 | 18547 ft | 361 kts | 18° |
| 2026-04-23 20:51 | 35.80663 | 9.69240 | 18300 ft | 353 kts | 18° |
| 2026-04-23 20:51 | 35.82870 | 9.70490 | 18027 ft | 344 kts | 18° |
| 2026-04-23 20:51 | 35.85010 | 9.71706 | 17764 ft | 334 kts | 18° |
| 2026-04-23 20:51 | 35.87094 | 9.72889 | 17530 ft | 326 kts | 17° |
| 2026-04-23 20:52 | 35.89778 | 9.74404 | 17179 ft | 316 kts | 17° |
| 2026-04-23 20:52 | 35.91120 | 9.75161 | 17008 ft | 312 kts | 17° |
| 2026-04-23 20:52 | 35.93071 | 9.76264 | 16748 ft | 306 kts | 17° |
| 2026-04-23 20:52 | 35.94988 | 9.77348 | 16494 ft | 301 kts | 17° |
| 2026-04-23 20:53 | 35.96880 | 9.78419 | 16244 ft | 298 kts | 17° |
| 2026-04-23 20:53 | 35.98757 | 9.79480 | 15881 ft | 298 kts | 17° |
| 2026-04-23 20:53 | 36.00615 | 9.80529 | 15495 ft | 297 kts | 17° |
| 2026-04-23 20:53 | 36.02518 | 9.81607 | 15099 ft | 297 kts | 17° |
| 2026-04-23 20:54 | 36.04369 | 9.82657 | 14717 ft | 297 kts | 17° |
| 2026-04-23 20:54 | 36.06243 | 9.83720 | 14361 ft | 296 kts | 18° |
| 2026-04-23 20:54 | 36.08104 | 9.84777 | 14029 ft | 294 kts | 18° |
| 2026-04-23 20:54 | 36.09943 | 9.85822 | 13674 ft | 288 kts | 18° |
| 2026-04-23 20:55 | 36.11762 | 9.86857 | 13302 ft | 287 kts | 18° |
| 2026-04-23 20:55 | 36.13598 | 9.87897 | 12937 ft | 285 kts | 18° |
| 2026-04-23 20:55 | 36.15374 | 9.88903 | 12581 ft | 284 kts | 18° |
| 2026-04-23 20:55 | 36.17166 | 9.89923 | 12222 ft | 282 kts | 18° |
| 2026-04-23 20:56 | 36.18945 | 9.90936 | 11873 ft | 281 kts | 18° |
| 2026-04-23 20:56 | 36.20714 | 9.91945 | 11527 ft | 280 kts | 18° |
| 2026-04-23 20:56 | 36.22479 | 9.92950 | 11175 ft | 278 kts | 18° |
| 2026-04-23 20:56 | 36.24237 | 9.93954 | 10837 ft | 277 kts | 19° |
| 2026-04-23 20:57 | 36.25987 | 9.94955 | 10508 ft | 276 kts | 19° |
| 2026-04-23 20:57 | 36.27722 | 9.95949 | 10166 ft | 275 kts | 19° |
| 2026-04-23 20:57 | 36.29456 | 9.96940 | 9812 ft | 273 kts | 19° |
| 2026-04-23 20:57 | 36.31165 | 9.97918 | 9443 ft | 265 kts | 19° |
| 2026-04-23 20:58 | 36.32794 | 9.98854 | 9073 ft | 252 kts | 19° |
| 2026-04-23 20:58 | 36.34344 | 9.99746 | 8719 ft | 242 kts | 20° |
| 2026-04-23 20:58 | 36.35871 | 10.00619 | 8368 ft | 241 kts | 20° |
| 2026-04-23 20:58 | 36.37391 | 10.01486 | 8018 ft | 240 kts | 20° |
| 2026-04-23 20:59 | 36.38907 | 10.02351 | 7672 ft | 239 kts | 21° |
| 2026-04-23 20:59 | 36.40411 | 10.03210 | 7329 ft | 238 kts | 21° |
| 2026-04-23 20:59 | 36.41908 | 10.04070 | 6984 ft | 236 kts | 22° |
| 2026-04-23 20:59 | 36.43389 | 10.04922 | 6646 ft | 234 kts | 22° |
| 2026-04-23 21:00 | 36.44866 | 10.05773 | 6298 ft | 233 kts | 22° |
| 2026-04-23 21:00 | 36.46323 | 10.06611 | 5950 ft | 227 kts | 23° |
| 2026-04-23 21:00 | 36.47722 | 10.07419 | 5645 ft | 219 kts | 24° |
| 2026-04-23 21:00 | 36.49100 | 10.08213 | 5348 ft | 218 kts | 23° |
| 2026-04-23 21:01 | 36.50472 | 10.09002 | 5051 ft | 217 kts | 23° |
| 2026-04-23 21:01 | 36.51841 | 10.09786 | 4746 ft | 216 kts | 24° |
| 2026-04-23 21:01 | 36.53198 | 10.10567 | 4442 ft | 214 kts | 24° |
| 2026-04-23 21:01 | 36.54533 | 10.11331 | 4254 ft | 208 kts | 24° |
| 2026-04-23 21:02 | 36.55828 | 10.12073 | 4074 ft | 202 kts | 24° |
| 2026-04-23 21:02 | 36.57086 | 10.12794 | 3889 ft | 196 kts | 24° |
| 2026-04-23 21:02 | 36.58297 | 10.13490 | 3725 ft | 185 kts | 25° |
| 2026-04-23 21:02 | 36.59413 | 10.14132 | 3568 ft | 169 kts | 25° |
| 2026-04-23 21:03 | 36.60446 | 10.14725 | 3387 ft | 160 kts | 25° |
| 2026-04-23 21:03 | 36.61444 | 10.15298 | 3217 ft | 156 kts | 26° |
| 2026-04-23 21:03 | 36.62424 | 10.15863 | 3141 ft | 155 kts | 26° |
| 2026-04-23 21:03 | 36.63409 | 10.16432 | 3129 ft | 162 kts | 26° |
| 2026-04-23 21:04 | 36.64484 | 10.17044 | 3122 ft | 174 kts | 22° |
| 2026-04-23 21:04 | 36.65667 | 10.17420 | 3115 ft | 177 kts | 14° |
| 2026-04-23 21:04 | 36.66872 | 10.17744 | 3112 ft | 177 kts | 14° |
| 2026-04-23 21:04 | 36.68077 | 10.18071 | 3117 ft | 177 kts | 14° |
| 2026-04-23 21:05 | 36.69280 | 10.18398 | 3111 ft | 177 kts | 14° |
| 2026-04-23 21:05 | 36.70480 | 10.18724 | 3113 ft | 177 kts | 14° |
| 2026-04-23 21:05 | 36.71693 | 10.19054 | 2884 ft | 180 kts | 14° |
| 2026-04-23 21:05 | 36.72920 | 10.19383 | 2520 ft | 179 kts | 15° |
| 2026-04-23 21:06 | 36.74111 | 10.19694 | 2097 ft | 172 kts | 15° |
| 2026-04-23 21:06 | 36.75250 | 10.19999 | 1787 ft | 161 kts | 16° |
| 2026-04-23 21:06 | 36.76305 | 10.20297 | 1569 ft | 152 kts | 15° |
| 2026-04-23 21:06 | 36.77298 | 10.20571 | 1366 ft | 140 kts | 15° |
| 2026-04-23 21:07 | 36.78224 | 10.20825 | 1157 ft | 134 kts | 15° |
| 2026-04-23 21:07 | 36.79133 | 10.21078 | 951 ft | 134 kts | 14° |
| 2026-04-23 21:07 | 36.80051 | 10.21324 | 844 ft | 135 kts | 15° |
| 2026-04-23 21:07 | 36.80971 | 10.21574 | 655 ft | 136 kts | 12° |
| 2026-04-23 21:08 | 36.81893 | 10.21823 | 503 ft | 134 kts | 14° |
| 2026-04-23 21:08 | 36.82796 | 10.22070 | 301 ft | 135 kts | 12° |
| 2026-04-23 21:08 | 36.83702 | 10.22315 | 126 ft | 133 kts | 13° |
| 2026-04-23 21:08 | 36.84575 | 10.22558 | 29 ft | 114 kts | 13° |
| 2026-04-23 21:09 | 36.85180 | 10.22723 | 34 ft | 64 kts | 13° |
| 2026-04-23 21:09 | 36.85524 | 10.22818 | 31 ft | 46 kts | 12° |
| 2026-04-23 21:09 | 36.85822 | 10.22893 | 30 ft | 39 kts | 12° |
| 2026-04-23 21:09 | 36.86005 | 10.22841 | 29 ft | 25 kts | 303° |
| 2026-04-23 21:10 | 36.85968 | 10.22665 | 30 ft | 24 kts | 209° |
| 2026-04-23 21:10 | 36.85806 | 10.22613 | 30 ft | 25 kts | 194° |
| 2026-04-23 21:10 | 36.85636 | 10.22574 | 30 ft | 25 kts | 189° |
| 2026-04-23 21:10 | 36.85465 | 10.22520 | 31 ft | 26 kts | 191° |
| 2026-04-23 21:11 | 36.85291 | 10.22476 | 33 ft | 25 kts | 193° |
| 2026-04-23 21:11 | 36.85132 | 10.22432 | 34 ft | 22 kts | 189° |
| 2026-04-23 21:11 | 36.85019 | 10.22400 | 31 ft | 0 kts | 191° |
| 2026-04-23 21:12 | 36.84953 | 10.22382 | 31 ft | 24 kts | 194° |
| 2026-04-23 21:12 | 36.84766 | 10.22330 | 30 ft | 29 kts | 191° |
| 2026-04-23 21:12 | 36.84572 | 10.22276 | 30 ft | 24 kts | 191° |
| 2026-04-23 21:13 | 36.84488 | 10.22200 | 30 ft | 15 kts | 294° |
| 2026-04-23 21:13 | 36.84491 | 10.22082 | 30 ft | 13 kts | 238° |
| 2026-04-23 21:13 | 36.84442 | 10.21991 | 30 ft | 12 kts | 242° |
| 2026-04-23 21:13 | 36.84445 | 10.21896 | 30 ft | 8 kts | 285° |
| 2026-04-23 21:14 | 36.84481 | 10.21874 | 30 ft | 6 kts | 11° |
| 2026-04-23 21:14 | 36.84523 | 10.21880 | 30 ft | 3 kts | 3° |
| 2026-04-23 21:14 | 36.84530 | 10.21881 | 30 ft | 0 kts | 2° |